Time;durP1;ratioP1;P1;durP2;ratioP2;P2;SDS_P1;SDS_P2;PMS_P1;PMS_P2;Temp;Humidity;BMP_temperature;BMP_pressure;BME280_temperature;BME280_humidity;BME280_pressure;Samples;Min_cycle;Max_cycle;Signal;HPM_P1;HPM_P2
2022/11/02 00:00:28;;;;;;;;;;;;;;;12.12;52.59;101105.38;4944276;28;98349;-65
2022/11/02 00:02:54;;;;;;;;;;;;;;;12.10;52.43;101109.41;4944788;28;97816;-64
2022/11/02 00:05:23;;;;;;;;;;;;;;;12.08;52.58;101111.59;4944781;28;112442;-65
2022/11/02 00:07:50;;;;;;;;;;;;;;;12.04;52.42;101112.09;4942595;28;98728;-65
2022/11/02 00:10:16;;;;;;;;;;;;;;;12.03;52.54;101115.06;4943016;28;98835;-65
2022/11/02 00:12:43;;;;;;;;;;;;;;;12.00;52.56;101113.69;4943248;28;98676;-65
2022/11/02 00:15:09;;;;;;;;;;;;;;;11.99;52.55;101106.66;4944316;28;108944;-65
2022/11/02 00:17:35;;;;;;;;;;;;;;;11.97;52.53;101108.81;4941392;28;124466;-65
2022/11/02 00:20:02;;;;;;;;;;;;;;;11.96;52.41;101106.38;4943907;28;128119;-65
2022/11/02 00:22:28;;;;;;;;;;;;;;;11.93;52.52;101113.09;4925855;28;98193;-65
2022/11/02 00:24:54;;;;;;;;;;;;;;;11.92;52.55;101116.09;4942775;28;111385;-65
2022/11/02 00:27:21;;;;;;;;;;;;;;;11.91;52.31;101117.16;4942202;28;126089;-65
2022/11/02 00:29:47;;;;;;;;;;;;;;;11.88;52.46;101110.38;4943647;28;110712;-66
2022/11/02 00:32:13;;;;;;;;;;;;;;;11.87;52.51;101113.31;4946015;28;98942;-65
2022/11/02 00:34:39;;;;;;;;;;;;;;;11.86;52.40;101117.09;4944149;28;111794;-65
2022/11/02 00:37:05;;;;;;;;;;;;;;;11.83;52.60;101123.88;4945254;28;98511;-65
2022/11/02 00:39:31;;;;;;;;;;;;;;;11.83;52.52;101114.88;4940721;28;127414;-65
2022/11/02 00:41:56;;;;;;;;;;;;;;;11.80;52.48;101119.75;4940231;28;126476;-65
2022/11/02 00:44:22;;;;;;;;;;;;;;;11.79;52.44;101118.13;4941095;28;111482;-65
2022/11/02 00:46:48;;;;;;;;;;;;;;;11.79;52.48;101117.31;4940393;28;128008;-65
2022/11/02 00:49:14;;;;;;;;;;;;;;;11.77;52.39;101122.97;4940663;28;127902;-65
2022/11/02 00:51:42;;;;;;;;;;;;;;;11.76;52.49;101121.34;4922134;28;126330;-65
2022/11/02 00:54:08;;;;;;;;;;;;;;;11.74;52.22;101128.88;4939098;28;97992;-65
2022/11/02 00:56:33;;;;;;;;;;;;;;;11.74;52.56;101131.56;4939473;28;127986;-65
2022/11/02 00:58:59;;;;;;;;;;;;;;;11.72;52.47;101122.94;4943061;28;128328;-65
2022/11/02 01:01:25;;;;;;;;;;;;;;;11.70;52.47;101127.78;4940396;28;126912;-65
2022/11/02 01:03:51;;;;;;;;;;;;;;;11.68;52.41;101127.22;4923618;28;112573;-65
2022/11/02 01:06:17;;;;;;;;;;;;;;;11.66;52.43;101118.56;4942733;28;127368;-65
2022/11/02 01:08:43;;;;;;;;;;;;;;;11.66;52.31;101118.56;4937779;28;126149;-66
2022/11/02 01:11:11;;;;;;;;;;;;;;;11.65;52.20;101122.34;4940528;28;127247;-65
2022/11/02 01:13:36;;;;;;;;;;;;;;;11.66;52.51;101123.97;4938171;28;98081;-66
2022/11/02 01:16:03;;;;;;;;;;;;;;;11.65;52.52;101122.34;4941736;28;113939;-65
2022/11/02 01:18:30;;;;;;;;;;;;;;;11.67;52.51;101127.47;4940743;28;108271;-65
2022/11/02 01:20:56;;;;;;;;;;;;;;;11.67;52.52;101120.22;4943445;28;99750;-65
2022/11/02 01:23:22;;;;;;;;;;;;;;;11.68;52.53;101119.13;4946064;28;98461;-65
2022/11/02 01:25:48;;;;;;;;;;;;;;;11.71;52.46;101112.38;4942525;28;104345;-64
2022/11/02 01:28:14;;;;;;;;;;;;;;;11.71;52.44;101118.63;4941201;28;128580;-65
2022/11/02 01:30:40;;;;;;;;;;;;;;;11.72;52.38;101117.53;4941165;28;127300;-65
2022/11/02 01:33:06;;;;;;;;;;;;;;;11.74;52.54;101123.47;4956937;28;110829;-64
2022/11/02 01:35:32;;;;;;;;;;;;;;;11.73;52.20;101116.44;4947274;28;98718;-65
2022/11/02 01:37:58;;;;;;;;;;;;;;;11.75;52.42;101118.88;4942397;28;127609;-65
2022/11/02 01:40:24;;;;;;;;;;;;;;;11.75;52.32;101111.63;4944302;28;125192;-65
2022/11/02 01:42:50;;;;;;;;;;;;;;;11.76;52.46;101105.13;4946275;28;97995;-66
2022/11/02 01:45:16;;;;;;;;;;;;;;;11.76;52.58;101099.75;4957963;28;98192;-65
2022/11/02 01:47:44;;;;;;;;;;;;;;;11.79;52.63;101106.53;4940287;28;129563;-65
2022/11/02 01:50:24;;;;;;;;;;;;;;;11.80;52.31;101106.25;4941052;28;99048;-65
2022/11/02 01:52:50;;;;;;;;;;;;;;;11.82;52.31;101105.16;4941358;28;98519;-66
2022/11/02 01:55:18;;;;;;;;;;;;;;;11.84;52.37;101101.16;4942754;28;127166;-66
2022/11/02 01:57:52;;;;;;;;;;;;;;;11.85;52.52;101104.69;4941598;28;99081;-65
2022/11/02 02:00:18;;;;;;;;;;;;;;;11.85;52.36;101097.38;4943133;28;120464;-64
2022/11/02 02:02:51;;;;;;;;;;;;;;;11.86;52.15;101098.19;4941028;28;98079;-65
2022/11/02 02:05:17;;;;;;;;;;;;;;;11.86;52.42;101100.91;4940453;28;120494;-65
2022/11/02 02:07:43;;;;;;;;;;;;;;;11.87;52.68;101107.91;4942789;28;98136;-65
2022/11/02 02:10:09;;;;;;;;;;;;;;;11.86;52.41;101101.72;4940169;28;125894;-66
2022/11/02 02:12:36;;;;;;;;;;;;;;;11.87;52.57;101102.53;4939543;28;101135;-65
2022/11/02 02:15:02;;;;;;;;;;;;;;;11.86;52.23;101093.59;4956672;28;98670;-65
2022/11/02 02:17:39;;;;;;;;;;;;;;;11.86;52.34;101092.78;4941341;28;114686;-65
2022/11/02 02:20:19;;;;;;;;;;;;;;;11.86;52.28;101090.09;4922836;28;98148;-65
2022/11/02 02:23:10;;;;;;;;;;;;;;;11.85;52.41;101091.19;4937823;28;110912;-65
2022/11/02 02:25:39;;;;;;;;;;;;;;;11.85;52.49;101094.69;4941248;28;97996;-65
2022/11/02 02:28:26;;;;;;;;;;;;;;;11.85;52.43;101088.47;4942912;28;98520;-66
2022/11/02 02:30:57;;;;;;;;;;;;;;;11.85;52.36;101086.59;4936983;28;98127;-65
2022/11/02 02:33:29;;;;;;;;;;;;;;;11.85;52.27;101083.06;4939852;28;98301;-65
2022/11/02 02:36:18;;;;;;;;;;;;;;;11.85;52.40;101088.47;4937857;28;98431;-65
2022/11/02 02:38:48;;;;;;;;;;;;;;;11.83;52.51;101086.03;4940319;28;98997;-65
2022/11/02 02:41:38;;;;;;;;;;;;;;;11.84;52.51;101093.06;4937241;28;121040;-65
2022/11/02 02:44:05;;;;;;;;;;;;;;;11.84;52.30;101095.78;4939835;28;97849;-65
2022/11/02 02:46:42;;;;;;;;;;;;;;;11.84;52.36;101093.06;4934427;28;124892;-66
2022/11/02 02:49:11;;;;;;;;;;;;;;;11.83;52.41;101094.16;4956013;28;127354;-65
2022/11/02 02:51:36;;;;;;;;;;;;;;;11.83;52.42;101095.97;4922085;28;98158;-65
2022/11/02 02:54:08;;;;;;;;;;;;;;;11.83;52.50;101090.56;4934368;28;111692;-66
2022/11/02 02:56:39;;;;;;;;;;;;;;;11.82;52.21;101087.06;4923986;28;102844;-65
2022/11/02 02:59:14;;;;;;;;;;;;;;;11.81;52.46;101082.75;4941818;28;98680;-65
2022/11/02 03:01:41;;;;;;;;;;;;;;;11.79;52.48;101085.72;4940468;28;119133;-65
2022/11/02 03:04:12;;;;;;;;;;;;;;;11.78;52.42;101086.78;4938640;28;108867;-65
2022/11/02 03:06:38;;;;;;;;;;;;;;;11.78;52.38;101091.34;4939480;28;99635;-65
2022/11/02 03:09:38;;;;;;;;;;;;;;;11.75;52.41;101087.31;4939515;28;128207;-65
2022/11/02 03:12:27;;;;;;;;;;;;;;;11.75;52.48;101092.72;4940401;28;98496;-65
2022/11/02 03:15:21;;;;;;;;;;;;;;;11.75;52.36;101094.56;4939563;28;98188;-65
2022/11/02 03:18:06;;;;;;;;;;;;;;;11.73;52.33;101100.25;4940911;28;127338;-65
2022/11/02 03:20:49;;;;;;;;;;;;;;;11.73;52.55;101102.13;4941970;28;99077;-66
2022/11/02 03:23:26;;;;;;;;;;;;;;;11.71;52.37;101099.72;4942036;28;123432;-65
2022/11/02 03:26:28;;;;;;;;;;;;;;;11.71;52.63;101107.81;4943824;28;97871;-65
2022/11/02 03:29:13;;;;;;;;;;;;;;;11.70;52.52;101106.16;4900567;28;99602;-65
2022/11/02 03:31:58;;;;;;;;;;;;;;;11.70;52.50;101108.06;4929969;28;128274;-65
2022/11/02 03:34:26;;;;;;;;;;;;;;;11.68;52.41;101100.22;4943152;28;98216;-65
2022/11/02 03:37:09;;;;;;;;;;;;;;;11.67;52.67;101084.25;4940845;28;106647;-66
2022/11/02 03:39:44;;;;;;;;;;;;;;;11.68;52.46;101094.81;4943490;28;98807;-66
2022/11/02 03:42:12;;;;;;;;;;;;;;;11.66;52.48;101088.84;4955026;28;112955;-65
2022/11/02 03:44:38;;;;;;;;;;;;;;;11.68;52.30;101099.41;4926449;28;110935;-65
2022/11/02 03:47:04;;;;;;;;;;;;;;;11.66;52.58;101099.66;4942969;28;111278;-65
2022/11/02 03:49:30;;;;;;;;;;;;;;;11.66;52.61;101098.84;4957888;28;98714;-66
2022/11/02 03:51:59;;;;;;;;;;;;;;;11.66;52.40;101096.13;4959366;28;98850;-65
2022/11/02 03:54:44;;;;;;;;;;;;;;;11.65;52.46;101092.63;4945042;28;101415;-65
2022/11/02 03:57:18;;;;;;;;;;;;;;;11.65;52.41;101098.03;4943684;28;97806;-65
2022/11/02 03:59:44;;;;;;;;;;;;;;;11.64;52.44;101096.41;4941093;28;98246;-65
2022/11/02 04:02:10;;;;;;;;;;;;;;;11.63;52.54;101097.50;4956856;28;128675;-66
2022/11/02 04:04:47;;;;;;;;;;;;;;;11.62;52.29;101100.44;4919080;28;126656;-66
2022/11/02 04:07:13;;;;;;;;;;;;;;;11.62;52.46;101105.84;4940653;28;98043;-65
2022/11/02 04:09:39;;;;;;;;;;;;;;;11.60;52.39;101097.19;4924039;28;127928;-66
2022/11/02 04:14:49;;;;;;;;;;;;;;;11.60;52.44;101108.00;4941366;28;97842;-65
2022/11/02 04:20:00;;;;;;;;;;;;;;;11.54;52.58;101105.22;4938212;28;97991;-65
2022/11/02 04:25:19;;;;;;;;;;;;;;;11.48;52.40;101100.88;4941032;28;98286;-65
2022/11/02 04:27:51;;;;;;;;;;;;;;;11.48;52.39;101106.28;4945579;28;98484;-65
2022/11/02 04:30:19;;;;;;;;;;;;;;;11.47;52.49;101101.94;4924091;28;98430;-66
2022/11/02 04:35:30;;;;;;;;;;;;;;;11.45;52.35;101103.28;4940113;28;97833;-66
2022/11/02 04:40:41;;;;;;;;;;;;;;;11.43;52.39;101097.31;4938151;28;98399;-66
2022/11/02 04:43:07;;;;;;;;;;;;;;;11.42;52.35;101093.00;4937527;28;98683;-65
2022/11/02 04:45:33;;;;;;;;;;;;;;;11.42;52.55;101093.00;4940037;28;97911;-65
2022/11/02 04:48:03;;;;;;;;;;;;;;;11.41;52.20;101094.88;4942026;28;108390;-65
2022/11/02 04:50:29;;;;;;;;;;;;;;;11.39;52.18;101093.50;4941825;28;125585;-66
2022/11/02 04:52:59;;;;;;;;;;;;;;;11.39;52.66;101090.81;4937774;28;101053;-66
2022/11/02 04:55:25;;;;;;;;;;;;;;;11.39;52.39;101099.72;4941435;28;126973;-65
2022/11/02 04:57:51;;;;;;;;;;;;;;;11.37;52.57;101091.06;4940179;28;112283;-65
2022/11/02 05:00:17;;;;;;;;;;;;;;;11.38;52.32;101090.00;4958534;28;122624;-65
2022/11/02 05:02:49;;;;;;;;;;;;;;;11.38;52.34;101091.88;4938772;28;98047;-65
2022/11/02 05:05:15;;;;;;;;;;;;;;;11.37;52.57;101099.16;4938941;28;126258;-65
2022/11/02 05:07:41;;;;;;;;;;;;;;;11.37;52.37;101096.47;4940498;28;98042;-65
2022/11/02 05:10:07;;;;;;;;;;;;;;;11.36;52.33;101088.59;4940318;28;98632;-65
2022/11/02 05:12:33;;;;;;;;;;;;;;;11.35;52.26;101089.69;4942031;28;98068;-65
2022/11/02 05:14:59;;;;;;;;;;;;;;;11.35;52.39;101087.00;4938887;28;126235;-65
2022/11/02 05:17:25;;;;;;;;;;;;;;;11.35;52.37;101089.69;4938895;28;117552;-66
2022/11/02 05:19:51;;;;;;;;;;;;;;;11.34;52.37;101088.06;4940977;28;127637;-66
2022/11/02 05:22:17;;;;;;;;;;;;;;;11.34;52.22;101093.47;4939589;28;112449;-65
2022/11/02 05:24:43;;;;;;;;;;;;;;;11.34;52.39;101090.78;4940563;28;112668;-65
2022/11/02 05:27:09;;;;;;;;;;;;;;;11.31;52.49;101090.19;4944968;28;97963;-65
2022/11/02 05:29:35;;;;;;;;;;;;;;;11.31;52.58;101098.28;4943432;28;128880;-65
2022/11/02 05:32:01;;;;;;;;;;;;;;;11.31;52.33;101100.19;4938353;28;128006;-65
2022/11/02 05:34:27;;;;;;;;;;;;;;;11.31;52.39;101090.19;4940599;28;98860;-65
2022/11/02 05:36:53;;;;;;;;;;;;;;;11.31;52.47;101094.78;4934747;28;118381;-65
2022/11/02 05:39:19;;;;;;;;;;;;;;;11.31;52.20;101100.19;4940905;28;98922;-66
2022/11/02 05:41:45;;;;;;;;;;;;;;;11.32;52.37;101099.13;4940420;28;128144;-65
2022/11/02 05:44:11;;;;;;;;;;;;;;;11.31;52.31;101098.28;4938264;28;128051;-65
2022/11/02 05:46:37;;;;;;;;;;;;;;;11.33;52.14;101099.94;4940351;28;116666;-65
2022/11/02 05:49:03;;;;;;;;;;;;;;;11.34;52.26;101107.78;4943741;28;109509;-65
2022/11/02 05:51:29;;;;;;;;;;;;;;;11.36;52.58;101110.19;4952061;28;127753;-65
2022/11/02 05:53:55;;;;;;;;;;;;;;;11.36;52.52;101110.19;4940454;28;128242;-66
2022/11/02 05:56:21;;;;;;;;;;;;;;;11.37;52.42;101112.66;4939413;28;116971;-65
2022/11/02 05:58:47;;;;;;;;;;;;;;;11.38;52.19;101122.38;4938219;28;128421;-65
2022/11/02 06:01:12;;;;;;;;;;;;;;;11.39;52.33;101115.09;4939108;28;127814;-66
2022/11/02 06:03:38;;;;;;;;;;;;;;;11.40;52.38;101116.75;4940265;28;127886;-66
2022/11/02 06:06:06;;;;;;;;;;;;;;;11.41;52.21;101113.78;4939283;28;113169;-65
2022/11/02 06:08:35;;;;;;;;;;;;;;;11.41;52.18;101116.47;4939320;28;98560;-66
2022/11/02 06:11:09;;;;;;;;;;;;;;;11.44;52.39;101115.16;4939711;28;98350;-65
2022/11/02 06:13:34;;;;;;;;;;;;;;;11.46;52.40;101118.41;4938487;28;98285;-66
2022/11/02 06:16:02;;;;;;;;;;;;;;;11.47;52.26;101112.72;4939752;28;116134;-65
2022/11/02 06:18:28;;;;;;;;;;;;;;;11.50;52.22;101119.50;4938929;28;99613;-65
2022/11/02 06:20:56;;;;;;;;;;;;;;;11.51;52.32;101127.38;4933650;28;98895;-65
2022/11/02 06:23:23;;;;;;;;;;;;;;;11.53;52.10;101122.50;4937480;28;97934;-66
2022/11/02 06:25:52;;;;;;;;;;;;;;;11.55;52.20;101119.53;4936555;28;98258;-65
2022/11/02 06:28:18;;;;;;;;;;;;;;;11.58;51.94;101121.72;4940147;28;99496;-66
2022/11/02 06:30:44;;;;;;;;;;;;;;;11.63;52.17;101126.34;4938114;28;123722;-65
2022/11/02 06:33:10;;;;;;;;;;;;;;;11.64;52.00;101120.72;4933705;28;124262;-65
2022/11/02 06:35:36;;;;;;;;;;;;;;;11.65;52.14;101118.81;4938829;28;117990;-65
2022/11/02 06:38:02;;;;;;;;;;;;;;;11.67;52.08;101124.75;4934148;28;128189;-65
2022/11/02 06:40:28;;;;;;;;;;;;;;;11.70;52.16;101124.25;4934020;28;127805;-65
2022/11/02 06:42:57;;;;;;;;;;;;;;;11.70;52.00;101127.78;4938301;28;115119;-65
2022/11/02 06:45:23;;;;;;;;;;;;;;;11.73;51.99;101123.75;4937276;28;98319;-65
2022/11/02 06:47:49;;;;;;;;;;;;;;;11.76;51.96;101124.03;4942049;28;98506;-65
2022/11/02 06:50:15;;;;;;;;;;;;;;;11.78;52.11;101119.19;4933204;28;109931;-66
2022/11/02 06:52:45;;;;;;;;;;;;;;;11.82;51.90;101115.97;4934788;28;125362;-66
2022/11/02 06:55:11;;;;;;;;;;;;;;;11.83;51.90;101120.28;4935594;28;97833;-65
2022/11/02 06:57:37;;;;;;;;;;;;;;;11.86;51.87;101122.50;4935538;28;99258;-65
2022/11/02 07:00:04;;;;;;;;;;;;;;;11.89;51.89;101111.19;4936270;28;98616;-65
2022/11/02 07:02:30;;;;;;;;;;;;;;;11.90;51.92;101102.81;4951524;28;97976;-65
2022/11/02 07:04:56;;;;;;;;;;;;;;;11.92;52.13;101108.78;4931495;28;101774;-65
2022/11/02 07:07:22;;;;;;;;;;;;;;;11.93;51.96;101115.81;4933712;28;107164;-65
2022/11/02 07:09:48;;;;;;;;;;;;;;;11.95;52.29;101112.88;4934504;28;99473;-66
2022/11/02 07:12:14;;;;;;;;;;;;;;;11.95;52.04;101116.38;4934278;28;126869;-66
2022/11/02 07:14:40;;;;;;;;;;;;;;;11.98;52.06;101128.53;4935347;28;116754;-66
2022/11/02 07:17:06;;;;;;;;;;;;;;;12.02;51.95;101124.22;4936260;28;113716;-66
2022/11/02 07:19:32;;;;;;;;;;;;;;;12.03;52.06;101123.19;4932180;28;127782;-65
2022/11/02 07:21:58;;;;;;;;;;;;;;;12.08;51.85;101139.41;4934469;28;126925;-65
2022/11/02 07:24:24;;;;;;;;;;;;;;;12.15;51.71;101145.41;4943458;28;116708;-66
2022/11/02 07:26:49;;;;;;;;;;;;;;;12.19;51.84;101146.50;4950395;28;127359;-65
2022/11/02 07:29:16;;;;;;;;;;;;;;;12.25;51.63;101142.75;4932660;28;126842;-65
2022/11/02 07:31:43;;;;;;;;;;;;;;;12.37;51.60;101147.94;4915387;28;98797;-65
2022/11/02 07:34:09;;;;;;;;;;;;;;;12.50;51.36;101150.19;4934914;28;98075;-65
2022/11/02 07:36:35;;;;;;;;;;;;;;;12.61;51.28;101152.91;4936343;28;100713;-65
2022/11/02 07:39:01;;;;;;;;;;;;;;;12.70;51.13;101148.66;4935589;28;127694;-65
2022/11/02 07:41:26;;;;;;;;;;;;;;;12.77;51.25;101141.91;4934210;28;126318;-65
2022/11/02 07:43:52;;;;;;;;;;;;;;;12.88;51.13;101141.94;4934984;28;116780;-65
2022/11/02 07:46:18;;;;;;;;;;;;;;;12.95;51.29;101140.59;4935373;28;128015;-66
2022/11/02 07:48:45;;;;;;;;;;;;;;;13.11;50.78;101140.63;4935953;28;128138;-65
2022/11/02 07:51:11;;;;;;;;;;;;;;;13.47;50.42;101150.47;4913247;28;123499;-65
2022/11/02 07:53:37;;;;;;;;;;;;;;;13.93;50.34;101141.50;4933053;28;97966;-65
2022/11/02 07:56:03;;;;;;;;;;;;;;;14.31;49.98;101140.09;4935022;28;99179;-65
2022/11/02 07:58:29;;;;;;;;;;;;;;;14.65;49.66;101137.53;4936197;28;128263;-65
2022/11/02 08:00:57;;;;;;;;;;;;;;;15.05;49.17;101135.72;4935272;28;98767;-65
2022/11/02 08:03:24;;;;;;;;;;;;;;;15.47;48.80;101137.03;4935914;28;99416;-65
2022/11/02 08:05:49;;;;;;;;;;;;;;;15.85;48.59;101143.53;4934969;28;122610;-65
2022/11/02 08:08:17;;;;;;;;;;;;;;;16.19;48.48;101138.03;4935790;28;127858;-65
2022/11/02 08:10:44;;;;;;;;;;;;;;;16.52;48.37;101140.91;4940601;28;97969;-66
2022/11/02 08:13:11;;;;;;;;;;;;;;;16.83;48.18;101146.81;4934731;28;97934;-66
2022/11/02 08:15:37;;;;;;;;;;;;;;;17.14;48.08;101149.13;4936011;28;99559;-66
2022/11/02 08:18:05;;;;;;;;;;;;;;;17.46;48.03;101142.91;4936598;28;126511;-66
2022/11/02 08:20:31;;;;;;;;;;;;;;;17.84;47.73;101148.28;4941226;28;98526;-66
2022/11/02 08:22:57;;;;;;;;;;;;;;;18.22;47.55;101138.03;4937274;28;117197;-66
2022/11/02 08:25:23;;;;;;;;;;;;;;;18.61;47.47;101144.91;4941201;28;110185;-66
2022/11/02 08:27:49;;;;;;;;;;;;;;;18.99;47.27;101147.41;4938415;28;115719;-66
2022/11/02 08:30:15;;;;;;;;;;;;;;;19.36;47.04;101151.72;4937599;28;128665;-66
2022/11/02 08:32:41;;;;;;;;;;;;;;;19.72;46.93;101157.16;4939453;28;98337;-66
2022/11/02 08:35:07;;;;;;;;;;;;;;;20.06;46.83;101145.59;4953948;28;128020;-66
2022/11/02 08:37:33;;;;;;;;;;;;;;;20.42;46.62;101155.56;4935775;28;121296;-66
2022/11/02 08:39:59;;;;;;;;;;;;;;;20.74;46.51;101167.28;4939859;28;126592;-66
2022/11/02 08:42:25;;;;;;;;;;;;;;;21.02;46.47;101154.13;4934524;28;118323;-65
2022/11/02 08:44:51;;;;;;;;;;;;;;;21.27;46.52;101160.75;4937672;28;128450;-66
2022/11/02 08:47:17;;;;;;;;;;;;;;;21.53;46.54;101158.81;4935527;28;128042;-66
2022/11/02 08:49:43;;;;;;;;;;;;;;;21.80;46.52;101157.63;4919282;28;98778;-65
2022/11/02 08:52:09;;;;;;;;;;;;;;;21.78;46.82;101157.19;4942058;28;98709;-66
2022/11/02 08:54:35;;;;;;;;;;;;;;;21.85;47.06;101158.59;4938999;28;126913;-66
2022/11/02 08:57:01;;;;;;;;;;;;;;;21.74;47.36;101152.66;4936784;28;127481;-67
2022/11/02 08:59:27;;;;;;;;;;;;;;;21.63;47.84;101159.63;4934646;28;98339;-66
2022/11/02 09:01:53;;;;;;;;;;;;;;;21.87;47.58;101156.34;4935255;28;115637;-65
2022/11/02 09:04:19;;;;;;;;;;;;;;;22.08;47.58;101156.44;4937373;28;118936;-65
2022/11/02 09:06:45;;;;;;;;;;;;;;;22.25;47.55;101159.97;4937970;28;98289;-67
2022/11/02 09:09:11;;;;;;;;;;;;;;;22.51;47.37;101148.84;4937227;28;127783;-66
2022/11/02 09:11:37;;;;;;;;;;;;;;;22.86;46.96;101154.13;4937739;28;117820;-66
2022/11/02 09:14:02;;;;;;;;;;;;;;;23.20;46.93;101153.09;4941249;28;98472;-65
2022/11/02 09:16:28;;;;;;;;;;;;;;;23.26;47.07;101160.00;4935597;28;108505;-67
2022/11/02 09:18:54;;;;;;;;;;;;;;;23.01;47.87;101152.75;4932351;28;127763;-67
2022/11/02 09:21:20;;;;;;;;;;;;;;;23.24;47.15;101156.78;4935261;28;115606;-66
2022/11/02 09:33:53;;;;;;;;;;;;;;;22.86;48.04;101145.88;4932993;28;98258;-65
2022/11/02 09:36:19;;;;;;;;;;;;;;;22.93;48.11;101145.38;4933155;28;105796;-65
2022/11/02 09:38:45;;;;;;;;;;;;;;;23.03;47.82;101148.53;4929720;28;127114;-67
2022/11/02 09:41:12;;;;;;;;;;;;;;;23.05;47.95;101153.69;4938870;28;98742;-67
2022/11/02 09:43:47;;;;;;;;;;;;;;;23.28;47.71;101154.16;4934527;28;98781;-65
2022/11/02 09:46:23;;;;;;;;;;;;;;;23.16;47.86;101151.38;4929697;28;99819;-65
2022/11/02 09:49:05;;;;;;;;;;;;;;;23.37;47.56;101160.38;4936862;28;98162;-66
2022/11/02 09:51:32;;;;;;;;;;;;;;;23.53;47.66;101158.59;4936933;28;98462;-67
2022/11/02 09:54:08;;;;;;;;;;;;;;;23.43;47.92;101164.56;4946575;28;98788;-67
2022/11/02 09:56:34;;;;;;;;;;;;;;;23.03;48.54;101162.28;4935724;28;98020;-65
2022/11/02 09:59:09;;;;;;;;;;;;;;;22.83;48.42;101162.22;4933544;28;127085;-65
2022/11/02 10:01:41;;;;;;;;;;;;;;;22.68;48.60;101158.94;4952694;28;98403;-65
2022/11/02 10:04:29;;;;;;;;;;;;;;;22.45;48.77;101154.88;4934075;28;99743;-67
2022/11/02 10:07:37;;;;;;;;;;;;;;;22.11;49.14;101164.81;4939787;28;98806;-66
2022/11/02 10:10:12;;;;;;;;;;;;;;;21.76;49.48;101164.91;4938800;28;114912;-64
2022/11/02 10:13:12;;;;;;;;;;;;;;;21.86;48.93;101172.00;4952835;28;103581;-65
2022/11/02 10:15:46;;;;;;;;;;;;;;;21.67;49.21;101161.38;4938549;28;98390;-65
2022/11/02 10:18:23;;;;;;;;;;;;;;;21.53;49.30;101166.25;4936179;28;99632;-65
2022/11/02 10:20:52;;;;;;;;;;;;;;;21.48;49.08;101172.69;4940397;28;99499;-65
2022/11/02 10:23:39;;;;;;;;;;;;;;;21.63;48.81;101181.56;4923219;28;109661;-67
2022/11/02 10:26:05;;;;;;;;;;;;;;;21.55;48.83;101177.69;4933755;28;121011;-66
2022/11/02 10:28:33;;;;;;;;;;;;;;;21.49;49.12;101171.56;4937560;28;106790;-65
2022/11/02 10:31:03;;;;;;;;;;;;;;;21.67;48.67;101177.84;4934065;28;124031;-65
2022/11/02 10:33:29;;;;;;;;;;;;;;;21.89;48.49;101173.28;4936014;28;98708;-67
2022/11/02 10:36:09;;;;;;;;;;;;;;;21.91;48.41;101162.78;4932243;28;128151;-67
2022/11/02 10:39:05;;;;;;;;;;;;;;;22.32;48.15;101159.44;4936304;28;98362;-66
2022/11/02 10:41:48;;;;;;;;;;;;;;;23.00;47.37;101173.94;4952845;28;123958;-67
2022/11/02 10:44:26;;;;;;;;;;;;;;;23.55;46.64;101166.53;4937982;28;97986;-67
2022/11/02 10:46:52;;;;;;;;;;;;;;;24.10;46.40;101170.03;4930632;28;127771;-67
2022/11/02 10:49:54;;;;;;;;;;;;;;;24.37;46.17;101174.09;4936677;28;119211;-65
2022/11/02 10:52:20;;;;;;;;;;;;;;;24.39;46.18;101175.38;4935566;28;98200;-65
2022/11/02 10:54:49;;;;;;;;;;;;;;;24.11;47.08;101166.94;4934357;28;97968;-65
2022/11/02 10:57:20;;;;;;;;;;;;;;;23.67;47.85;101168.56;4935355;28;98403;-65
2022/11/02 11:00:08;;;;;;;;;;;;;;;23.23;48.47;101174.44;4935408;28;98714;-67
2022/11/02 11:02:34;;;;;;;;;;;;;;;22.86;48.72;101167.06;4936938;28;98158;-66
2022/11/02 11:05:13;;;;;;;;;;;;;;;22.60;48.93;101173.53;4945336;28;117423;-66
2022/11/02 11:07:42;;;;;;;;;;;;;;;22.34;48.90;101167.34;4934778;28;98640;-65
2022/11/02 11:10:13;;;;;;;;;;;;;;;22.14;49.41;101171.63;4934152;28;101633;-65
2022/11/02 11:12:43;;;;;;;;;;;;;;;22.13;49.09;101170.00;4935542;28;126225;-65
2022/11/02 11:15:29;;;;;;;;;;;;;;;22.01;49.10;101170.69;4935116;28;97808;-65
2022/11/02 11:17:55;;;;;;;;;;;;;;;21.91;49.07;101162.78;4933751;28;104056;-66
2022/11/02 11:20:32;;;;;;;;;;;;;;;21.92;48.76;101173.44;4936505;28;98803;-65
2022/11/02 11:23:17;;;;;;;;;;;;;;;21.73;48.99;101164.75;4909497;28;98970;-67
2022/11/02 11:25:52;;;;;;;;;;;;;;;21.48;49.37;101169.16;4938030;28;98052;-67
2022/11/02 11:29:00;;;;;;;;;;;;;;;21.45;49.18;101161.56;4949633;28;101135;-65
2022/11/02 11:31:26;;;;;;;;;;;;;;;21.30;49.35;101166.41;4913608;28;98986;-65
2022/11/02 11:33:54;;;;;;;;;;;;;;;21.15;49.46;101175.09;4936344;28;97883;-66
2022/11/02 11:36:31;;;;;;;;;;;;;;;21.12;49.36;101172.19;4936617;28;113231;-65
2022/11/02 11:39:24;;;;;;;;;;;;;;;21.12;49.21;101180.41;4951272;28;99061;-65
2022/11/02 11:41:50;;;;;;;;;;;;;;;21.12;49.14;101161.22;4951477;28;99654;-65
2022/11/02 11:44:16;;;;;;;;;;;;;;;20.83;49.52;101170.88;4948905;28;127721;-67
2022/11/02 11:46:52;;;;;;;;;;;;;;;20.70;49.45;101166.31;4936240;28;111771;-66
2022/11/02 11:49:22;;;;;;;;;;;;;;;20.67;49.65;101175.16;4937569;28;124021;-66
2022/11/02 11:51:49;;;;;;;;;;;;;;;20.58;49.45;101170.47;4932909;28;98620;-66
2022/11/02 11:54:17;;;;;;;;;;;;;;;20.50;49.54;101171.25;4918640;28;123412;-66
2022/11/02 11:56:43;;;;;;;;;;;;;;;20.34;49.61;101173.56;4934032;28;98390;-65
2022/11/02 11:59:28;;;;;;;;;;;;;;;20.24;49.78;101170.31;4936720;28;99565;-66
2022/11/02 12:01:59;;;;;;;;;;;;;;;19.98;49.87;101162.78;4937295;28;99126;-65
2022/11/02 12:04:35;;;;;;;;;;;;;;;19.76;50.26;101165.53;4937837;28;98308;-66
2022/11/02 12:07:17;;;;;;;;;;;;;;;19.49;50.35;101171.91;4921378;28;98207;-66
2022/11/02 12:09:43;;;;;;;;;;;;;;;19.25;50.47;101173.03;4932581;28;98940;-65
2022/11/02 12:12:25;;;;;;;;;;;;;;;19.09;50.56;101178.03;4935797;28;98913;-65
2022/11/02 12:15:57;;;;;;;;;;;;;;;19.04;50.32;101177.34;4940225;28;98137;-62
2022/11/02 12:18:50;;;;;;;;;;;;;;;18.93;50.42;101165.81;4886579;28;98144;-67
2022/11/02 12:21:40;;;;;;;;;;;;;;;18.78;50.38;101166.94;4939427;28;97920;-65
2022/11/02 12:24:18;;;;;;;;;;;;;;;18.78;50.42;101172.41;4929503;28;100292;-65
2022/11/02 12:27:03;;;;;;;;;;;;;;;18.89;49.96;101168.34;4934269;28;98201;-65
2022/11/02 12:29:47;;;;;;;;;;;;;;;18.94;49.88;101163.91;4942126;28;97945;-64
2022/11/02 12:32:32;;;;;;;;;;;;;;;18.97;49.51;101163.28;4942466;28;99042;-65
2022/11/02 12:35:20;;;;;;;;;;;;;;;19.02;49.66;101152.25;4937499;28;122290;-65
2022/11/02 12:37:57;;;;;;;;;;;;;;;18.98;49.64;101165.72;4937336;28;99975;-64
2022/11/02 12:41:08;;;;;;;;;;;;;;;19.07;49.57;101163.06;4938703;28;115790;-66
2022/11/02 12:43:37;;;;;;;;;;;;;;;19.04;49.53;101163.69;4938917;28;98942;-65
2022/11/02 12:46:18;;;;;;;;;;;;;;;18.93;49.72;101152.16;4942631;28;99833;-64
2022/11/02 12:49:06;;;;;;;;;;;;;;;18.74;50.07;101159.69;4938738;28;99846;-64
2022/11/02 12:51:37;;;;;;;;;;;;;;;18.54;50.17;101164.41;4937029;28;98238;-66
2022/11/02 12:54:17;;;;;;;;;;;;;;;18.41;50.30;101173.41;4937212;28;120237;-65
2022/11/02 12:56:52;;;;;;;;;;;;;;;18.30;50.05;101177.47;4938632;28;120954;-64
2022/11/02 12:59:22;;;;;;;;;;;;;;;18.18;50.29;101171.69;4939822;28;122526;-64
2022/11/02 13:01:51;;;;;;;;;;;;;;;18.04;50.52;101177.13;4935894;28;98547;-65
2022/11/02 13:04:23;;;;;;;;;;;;;;;17.94;50.48;101178.09;4933854;28;99007;-65
2022/11/02 13:07:02;;;;;;;;;;;;;;;17.96;50.25;101172.34;4932701;28;124465;-66
2022/11/02 13:09:32;;;;;;;;;;;;;;;17.97;50.01;101176.72;4937622;28;98822;-64
2022/11/02 13:12:17;;;;;;;;;;;;;;;18.01;50.04;101172.28;4936509;28;115700;-65